createdAt,value
2022-08-22T00:01:55.601Z,95401.19
2022-08-22T00:03:09.033Z,95406.31
2022-08-22T00:04:37.221Z,95408.13
2022-08-22T00:07:18.118Z,95414.56
2022-08-22T00:09:58.479Z,95410.16
2022-08-22T00:12:34.718Z,95411.56
2022-08-22T00:15:31.555Z,95405.75
2022-08-22T00:18:10.278Z,95402.78
2022-08-22T00:20:45.320Z,95406.28
2022-08-22T00:23:18.879Z,95407.09
2022-08-22T00:25:59.280Z,95397.81
2022-08-22T00:28:36.362Z,95394.53
2022-08-22T00:31:16.682Z,95397.22
2022-08-22T00:33:51.887Z,95395.09
2022-08-22T00:36:25.998Z,95399.41
2022-08-22T00:39:14.220Z,95396.72
2022-08-22T00:42:29.443Z,95402.81
2022-08-22T00:45:47.060Z,95396.19
2022-08-22T00:48:49.042Z,95392.00
2022-08-22T00:51:50.299Z,95393.00
2022-08-22T00:54:46.598Z,95391.91
2022-08-22T00:57:47.918Z,95397.81
2022-08-22T01:00:21.938Z,95390.84
2022-08-22T01:03:27.712Z,95393.34
2022-08-22T01:06:20.200Z,95383.66
2022-08-22T01:09:04.802Z,95376.22
2022-08-22T01:12:09.479Z,95374.69
2022-08-22T01:14:47.340Z,95374.78
2022-08-22T01:17:41.762Z,95367.25
2022-08-22T01:20:42.039Z,95362.31
2022-08-22T01:23:53.805Z,95371.00
2022-08-22T01:27:03.361Z,95371.22
2022-08-22T01:30:07.204Z,95370.69
2022-08-22T01:33:19.283Z,95369.56
2022-08-22T01:36:29.863Z,95365.28
2022-08-22T01:39:32.981Z,95358.47
2022-08-22T01:42:32.182Z,95361.88
2022-08-22T01:45:24.482Z,95360.63
2022-08-22T01:47:59.917Z,95351.31
2022-08-22T01:50:34.804Z,95358.84
2022-08-22T01:53:11.443Z,95362.16
2022-08-22T01:55:48.502Z,95353.91
2022-08-22T01:58:20.182Z,95361.78
2022-08-22T02:01:03.184Z,95353.59
2022-08-22T02:03:39.183Z,95355.75
2022-08-22T02:06:16.241Z,95348.53
2022-08-22T02:09:02.162Z,95340.75
2022-08-22T02:11:48.041Z,95347.00
2022-08-22T02:14:28.442Z,95345.63
2022-08-22T02:17:09.282Z,95351.31
2022-08-22T02:19:48.882Z,95348.69
2022-08-22T02:22:32.822Z,95347.66
2022-08-22T02:25:09.290Z,95339.81
2022-08-22T02:27:46.802Z,95341.97
2022-08-22T02:30:19.203Z,95341.19
2022-08-22T02:32:59.301Z,95334.81
2022-08-22T02:35:32.804Z,95337.31
2022-08-22T02:38:14.036Z,95336.78
2022-08-22T02:40:53.375Z,95335.47
2022-08-22T02:43:29.889Z,95344.00
2022-08-22T02:46:12.436Z,95333.41
2022-08-22T02:48:48.176Z,95332.84
2022-08-22T02:51:27.855Z,95329.44
2022-08-22T02:54:07.236Z,95327.03
2022-08-22T02:56:44.017Z,95327.03
2022-08-22T02:59:29.696Z,95320.72
2022-08-22T03:01:57.397Z,95315.38
2022-08-22T03:04:47.577Z,95309.53
2022-08-22T03:07:31.017Z,95308.53
2022-08-22T03:10:08.860Z,95313.31
2022-08-22T03:12:47.841Z,95310.97
2022-08-22T03:15:26.562Z,95316.03
2022-08-22T03:18:01.505Z,95320.34
2022-08-22T03:20:50.483Z,95316.63
2022-08-22T03:23:31.361Z,95306.44
2022-08-22T03:26:07.923Z,95304.09
2022-08-22T03:28:59.018Z,95304.41
2022-08-22T03:31:29.681Z,95303.38
2022-08-22T03:34:19.545Z,95292.44
2022-08-22T03:37:01.842Z,95290.84
2022-08-22T03:39:48.777Z,95299.66
2022-08-22T03:42:49.183Z,95298.06
2022-08-22T03:46:07.801Z,95292.22
2022-08-22T03:49:05.619Z,95295.66
2022-08-22T03:51:45.284Z,95291.63
2022-08-22T03:54:36.720Z,95295.34
2022-08-22T03:57:44.040Z,95301.72
2022-08-22T04:00:33.960Z,95302.84
2022-08-22T04:03:33.243Z,95304.47
2022-08-22T04:06:37.201Z,95306.34
2022-08-22T04:09:58.302Z,95301.78
2022-08-22T04:12:52.313Z,95306.38
2022-08-22T04:15:41.273Z,95300.81
2022-08-22T04:18:40.261Z,95304.84
2022-08-22T04:21:53.683Z,95316.66
2022-08-22T04:24:40.021Z,95315.31
2022-08-22T04:27:18.741Z,95316.94
2022-08-22T04:29:55.460Z,95315.31
2022-08-22T04:32:31.661Z,95316.94
2022-08-22T04:35:08.122Z,95317.72
2022-08-22T04:37:46.806Z,95313.94
2022-08-22T04:40:22.086Z,95319.28
2022-08-22T04:42:57.140Z,95311.84
2022-08-22T04:45:32.927Z,95314.00
2022-08-22T04:48:08.239Z,95318.81
2022-08-22T04:50:44.261Z,95320.69
2022-08-22T04:53:46.269Z,95325.50
2022-08-22T04:56:25.801Z,95323.34
2022-08-22T04:58:59.082Z,95327.34
2022-08-22T05:01:38.863Z,95336.13
2022-08-22T05:04:11.400Z,95334.31
2022-08-22T05:06:43.660Z,95342.53
2022-08-22T05:09:19.300Z,95338.81
2022-08-22T05:11:53.222Z,95343.88
2022-08-22T05:14:33.463Z,95354.31
2022-08-22T05:17:03.061Z,95356.97
2022-08-22T05:19:37.081Z,95367.06
2022-08-22T05:22:14.661Z,95364.41
2022-08-22T05:24:50.041Z,95368.81
2022-08-22T05:27:21.822Z,95364.56
2022-08-22T05:30:01.282Z,95370.44
2022-08-22T05:32:34.360Z,95373.78
2022-08-22T05:35:05.788Z,95378.38
2022-08-22T05:37:42.521Z,95371.63
2022-08-22T05:40:19.921Z,95373.78
2022-08-22T05:42:47.600Z,95379.63
2022-08-22T05:45:18.361Z,95376.91
2022-08-22T05:47:50.760Z,95386.25
2022-08-22T05:50:27.779Z,95382.97
2022-08-22T05:53:04.022Z,95384.75
2022-08-22T05:55:43.961Z,95377.78
2022-08-22T05:58:30.340Z,95380.19
2022-08-22T06:01:09.220Z,95375.63
2022-08-22T06:03:45.480Z,95380.34
2022-08-22T06:06:18.740Z,95374.69
2022-08-22T06:08:58.280Z,95382.00
2022-08-22T06:11:34.165Z,95379.53
2022-08-22T06:14:16.221Z,95381.38
2022-08-22T06:16:54.120Z,95370.25
2022-08-22T06:19:22.121Z,95376.72
2022-08-22T06:21:54.101Z,95377.13
2022-08-22T06:24:26.443Z,95378.66
2022-08-22T06:27:05.021Z,95365.88
2022-08-22T06:29:38.020Z,95377.78
2022-08-22T06:32:13.083Z,95376.59
2022-08-22T06:34:45.062Z,95378.88
2022-08-22T06:37:20.439Z,95381.09
2022-08-22T06:39:54.003Z,95384.88
2022-08-22T06:42:27.161Z,95390.19
2022-08-22T06:45:01.001Z,95385.84
2022-08-22T06:47:36.500Z,95392.88
2022-08-22T06:50:13.903Z,95397.84
2022-08-22T06:52:54.121Z,95390.41
2022-08-22T06:55:23.881Z,95395.34
2022-08-22T06:57:58.269Z,95396.25
2022-08-22T07:00:27.716Z,95390.34
2022-08-22T07:03:00.921Z,95390.31
2022-08-22T07:05:34.423Z,95383.38
2022-08-22T07:08:06.583Z,95380.88
2022-08-22T07:10:34.241Z,95384.13
2022-08-22T07:13:03.520Z,95389.34
2022-08-22T07:15:34.564Z,95395.28
2022-08-22T07:18:05.243Z,95393.94
2022-08-22T07:20:36.463Z,95389.94
2022-08-22T07:23:09.061Z,95395.00
2022-08-22T07:25:51.403Z,95403.72
2022-08-22T07:28:36.930Z,95398.38
2022-08-22T07:31:20.881Z,95399.84
2022-08-22T07:33:55.300Z,95398.41
2022-08-22T07:36:33.880Z,95397.25
2022-08-22T07:39:23.881Z,95403.47
2022-08-22T07:42:10.282Z,95395.53
2022-08-22T07:44:57.084Z,95396.84
2022-08-22T07:47:35.361Z,95391.59
2022-08-22T07:50:07.940Z,95391.38
2022-08-22T07:52:43.140Z,95401.03
2022-08-22T07:55:18.563Z,95397.19
2022-08-22T07:57:53.960Z,95392.31
2022-08-22T08:00:25.025Z,95391.38
2022-08-22T08:02:56.121Z,95390.97
2022-08-22T08:05:27.969Z,95380.22
2022-08-22T08:07:56.981Z,95378.16
2022-08-22T08:10:32.021Z,95373.25
2022-08-22T08:13:07.828Z,95368.66
2022-08-22T08:15:39.885Z,95376.44
2022-08-22T08:18:13.326Z,95380.19
2022-08-22T08:20:40.595Z,95383.63
2022-08-22T08:23:11.968Z,95390.09
2022-08-22T08:25:58.662Z,95388.69
2022-08-22T08:28:26.841Z,95391.63
2022-08-22T08:31:02.302Z,95390.25
2022-08-22T08:33:33.621Z,95392.75
2022-08-22T08:36:08.682Z,95391.47
2022-08-22T08:38:45.460Z,95379.88
2022-08-22T08:41:50.661Z,95377.69
2022-08-22T08:44:39.476Z,95378.44
2022-08-22T08:47:37.079Z,95383.94
2022-08-22T08:50:50.185Z,95382.59
2022-08-22T08:54:02.861Z,95384.66
2022-08-22T08:56:47.230Z,95382.13
2022-08-22T08:59:34.280Z,95390.25
2022-08-22T09:02:42.556Z,95378.97
2022-08-22T09:05:51.080Z,95376.84
2022-08-22T09:08:55.205Z,95365.53
2022-08-22T09:12:01.382Z,95368.59
2022-08-22T09:14:52.362Z,95375.88
2022-08-22T09:17:52.540Z,95376.56
2022-08-22T09:20:43.900Z,95373.88
2022-08-22T09:24:02.199Z,95365.31
2022-08-22T09:26:46.361Z,95365.78
2022-08-22T09:29:54.882Z,95353.09
2022-08-22T09:32:39.561Z,95351.97
2022-08-22T09:35:22.418Z,95346.63
2022-08-22T09:38:15.481Z,95352.16
2022-08-22T09:40:50.436Z,95347.63
2022-08-22T09:43:24.520Z,95340.47
2022-08-22T09:46:08.839Z,95341.81
2022-08-22T09:48:51.547Z,95354.06
2022-08-22T09:51:34.139Z,95352.44
2022-08-22T09:54:23.160Z,95356.59
2022-08-22T09:57:06.380Z,95357.22
2022-08-22T09:59:57.948Z,95361.88
2022-08-22T10:02:33.940Z,95347.28
2022-08-22T10:05:12.662Z,95347.78
2022-08-22T10:08:12.743Z,95352.22
2022-08-22T10:11:16.543Z,95356.25
2022-08-22T10:13:57.694Z,95347.81
2022-08-22T10:16:53.480Z,95351.94
2022-08-22T10:19:28.742Z,95354.25
2022-08-22T10:22:20.962Z,95356.59
2022-08-22T10:25:04.807Z,95355.81
2022-08-22T10:27:51.701Z,95346.69
2022-08-22T10:30:25.722Z,95339.19
2022-08-22T10:33:07.082Z,95346.69
2022-08-22T10:35:44.390Z,95347.66
2022-08-22T10:38:20.620Z,95337.59
2022-08-22T10:41:03.580Z,95348.50
2022-08-22T10:43:48.280Z,95341.47
2022-08-22T10:46:36.863Z,95335.56
2022-08-22T10:49:15.384Z,95334.09
2022-08-22T10:51:51.839Z,95329.13
2022-08-22T10:54:41.221Z,95329.28
2022-08-22T10:57:27.920Z,95327.41
2022-08-22T11:00:11.162Z,95333.28
2022-08-22T11:02:53.340Z,95322.94
2022-08-22T11:05:41.540Z,95331.88
2022-08-22T11:08:41.120Z,95326.44
2022-08-22T11:11:24.782Z,95329.81
2022-08-22T11:14:46.329Z,95334.75
2022-08-22T11:17:40.747Z,95326.25
2022-08-22T11:20:21.433Z,95328.59
2022-08-22T11:23:15.542Z,95319.19
2022-08-22T11:26:05.025Z,95313.28
2022-08-22T11:29:14.547Z,95312.34
2022-08-22T11:31:53.862Z,95310.06
2022-08-22T11:34:41.983Z,95308.47
2022-08-22T11:37:42.415Z,95311.38
2022-08-22T11:40:28.026Z,95310.44
2022-08-22T11:43:08.135Z,95296.97
2022-08-22T11:45:49.147Z,95301.13
2022-08-22T11:48:25.940Z,95305.09
2022-08-22T11:51:13.558Z,95301.25
2022-08-22T11:53:49.582Z,95303.13
2022-08-22T11:56:26.461Z,95302.72
2022-08-22T11:59:01.784Z,95300.44
2022-08-22T12:01:41.481Z,95303.88
2022-08-22T12:04:16.262Z,95301.16
2022-08-22T12:07:04.702Z,95295.06
2022-08-22T12:09:47.804Z,95297.28
2022-08-22T12:12:42.906Z,95299.00
2022-08-22T12:15:18.942Z,95288.59
2022-08-22T12:18:21.137Z,95293.19
2022-08-22T12:21:14.222Z,95288.81
2022-08-22T12:24:11.356Z,95294.28
2022-08-22T12:27:08.482Z,95296.81
2022-08-22T12:29:49.902Z,95282.81
2022-08-22T12:33:08.062Z,95287.09
2022-08-22T12:35:56.382Z,95287.41
2022-08-22T12:38:40.001Z,95288.13
2022-08-22T12:41:35.529Z,95286.41
2022-08-22T12:44:29.802Z,95275.25
2022-08-22T12:47:28.031Z,95276.09
2022-08-22T12:50:27.823Z,95273.78
2022-08-22T12:53:32.902Z,95270.19
2022-08-22T12:56:10.521Z,95268.34
2022-08-22T12:59:08.263Z,95262.06
2022-08-22T13:01:41.309Z,95256.81
2022-08-22T13:04:32.821Z,95270.44
2022-08-22T13:07:10.242Z,95254.94
2022-08-22T13:09:43.333Z,95256.53
2022-08-22T13:12:24.322Z,95254.78
2022-08-22T13:14:59.866Z,95257.69
2022-08-22T13:17:28.342Z,95248.63
2022-08-22T13:20:05.664Z,95248.94
2022-08-22T13:22:40.585Z,95243.53
2022-08-22T13:25:25.882Z,95242.78
2022-08-22T13:27:59.241Z,95249.88
2022-08-22T13:30:37.717Z,95250.66
2022-08-22T13:33:10.120Z,95250.06
2022-08-22T13:35:51.835Z,95249.28
2022-08-22T13:38:25.947Z,95245.13
2022-08-22T13:40:57.026Z,95248.66
2022-08-22T13:43:29.447Z,95245.78
2022-08-22T13:46:02.459Z,95234.38
2022-08-22T13:48:49.495Z,95229.59
2022-08-22T13:51:33.446Z,95235.97
2022-08-22T13:54:26.424Z,95234.22
2022-08-22T13:57:11.083Z,95235.34
2022-08-22T13:59:52.080Z,95230.91
2022-08-22T14:02:49.288Z,95226.59
2022-08-22T14:05:26.147Z,95225.19
2022-08-22T14:08:12.479Z,95229.63
2022-08-22T14:10:50.497Z,95224.19
2022-08-22T14:13:43.025Z,95226.47
2022-08-22T14:16:19.709Z,95209.03
2022-08-22T14:18:53.733Z,95210.44
2022-08-22T14:21:40.001Z,95215.16
2022-08-22T14:24:17.284Z,95224.72
2022-08-22T14:26:58.146Z,95207.13
2022-08-22T14:29:31.814Z,95212.38
2022-08-22T14:32:03.626Z,95211.41
2022-08-22T14:34:36.625Z,95206.19
2022-08-22T14:37:14.465Z,95209.84
2022-08-22T14:39:49.282Z,95212.84
2022-08-22T14:42:21.929Z,95214.09
2022-08-22T14:45:06.524Z,95219.47
2022-08-22T14:48:14.217Z,95221.50
2022-08-22T14:50:49.687Z,95217.38
2022-08-22T14:53:26.969Z,95215.38
2022-08-22T14:56:00.466Z,95210.94
2022-08-22T14:58:31.386Z,95219.97
2022-08-22T15:01:10.070Z,95222.03
2022-08-22T15:03:40.138Z,95208.53
2022-08-22T15:06:14.386Z,95221.72
2022-08-22T15:08:50.162Z,95203.47
2022-08-22T15:11:24.546Z,95213.28
2022-08-22T15:14:02.007Z,95205.41
2022-08-22T15:16:37.045Z,95208.91
2022-08-22T15:19:24.964Z,95204.28
2022-08-22T15:22:11.393Z,95206.50
2022-08-22T15:24:47.683Z,95208.25
2022-08-22T15:27:19.345Z,95201.13
2022-08-22T15:29:51.622Z,95200.63
2022-08-22T15:32:22.721Z,95200.97
2022-08-22T15:35:05.481Z,95200.50
2022-08-22T15:37:52.243Z,95198.09
2022-08-22T15:40:34.305Z,95203.34
2022-08-22T15:43:20.053Z,95197.94
2022-08-22T15:45:50.883Z,95199.72
2022-08-22T15:48:33.803Z,95202.22
2022-08-22T15:51:05.024Z,95189.41
2022-08-22T15:54:16.206Z,95193.34
2022-08-22T15:57:14.460Z,95190.66
2022-08-22T15:59:54.605Z,95197.47
2022-08-22T16:02:30.504Z,95195.09
2022-08-22T16:05:23.323Z,95194.63
2022-08-22T16:08:02.916Z,95198.59
2022-08-22T16:10:37.944Z,95194.31
2022-08-22T16:13:13.622Z,95196.84
2022-08-22T16:15:59.003Z,95197.97
2022-08-22T16:19:03.140Z,95201.91
2022-08-22T16:22:07.364Z,95198.59
2022-08-22T16:25:10.754Z,95200.50
2022-08-22T16:27:53.284Z,95198.28
2022-08-22T16:30:35.521Z,95201.31
2022-08-22T16:33:04.212Z,95200.50
2022-08-22T16:36:22.841Z,95191.47
2022-08-22T16:38:53.480Z,95190.69
2022-08-22T16:41:35.520Z,95194.78
2022-08-22T16:44:40.842Z,95197.16
2022-08-22T16:47:13.297Z,95200.97
2022-08-22T16:49:57.102Z,95200.34
2022-08-22T16:52:58.502Z,95191.47
2022-08-22T16:55:58.290Z,95200.66
2022-08-22T16:58:59.047Z,95198.44
2022-08-22T17:01:55.100Z,95198.38
2022-08-22T17:04:33.121Z,95204.88
2022-08-22T17:07:21.805Z,95203.00
2022-08-22T17:10:12.421Z,95203.81
2022-08-22T17:13:09.093Z,95207.91
2022-08-22T17:15:56.861Z,95211.22
2022-08-22T17:18:54.261Z,95205.06
2022-08-22T17:21:27.992Z,95207.78
2022-08-22T17:24:06.583Z,95217.25
2022-08-22T17:26:55.346Z,95217.41
2022-08-22T17:29:39.740Z,95215.66
2022-08-22T17:32:21.213Z,95217.84
2022-08-22T17:34:59.222Z,95220.81
2022-08-22T17:37:44.081Z,95224.34
2022-08-22T17:40:33.202Z,95217.69
2022-08-22T17:43:17.920Z,95226.53
2022-08-22T17:46:02.206Z,95226.56
2022-08-22T17:48:39.001Z,95217.69
2022-08-22T17:51:25.324Z,95230.50
2022-08-22T17:54:01.402Z,95230.50
2022-08-22T17:56:39.483Z,95230.22
2022-08-22T17:59:12.702Z,95238.00
2022-08-22T18:01:48.829Z,95237.63
2022-08-22T18:04:29.121Z,95241.56
2022-08-22T18:07:22.482Z,95242.84
2022-08-22T18:09:55.431Z,95247.91
2022-08-22T18:12:34.295Z,95245.22
2022-08-22T18:15:11.423Z,95250.75
2022-08-22T18:17:47.342Z,95252.16
2022-08-22T18:20:24.641Z,95258.34
2022-08-22T18:22:58.829Z,95257.84
2022-08-22T18:25:34.522Z,95256.09
2022-08-22T18:28:08.723Z,95269.06
2022-08-22T18:30:52.361Z,95263.00
2022-08-22T18:33:32.989Z,95270.44
2022-08-22T18:36:10.181Z,95267.25
2022-08-22T18:38:51.661Z,95266.78
2022-08-22T18:41:32.121Z,95264.88
2022-08-22T18:44:10.505Z,95267.84
2022-08-22T18:46:45.802Z,95265.94
2022-08-22T18:49:38.983Z,95278.59
2022-08-22T18:52:19.228Z,95270.03
2022-08-22T18:55:25.022Z,95280.00
2022-08-22T18:58:18.402Z,95280.28
2022-08-22T19:01:10.051Z,95282.91
2022-08-22T19:04:12.602Z,95280.41
2022-08-22T19:07:09.503Z,95282.41
2022-08-22T19:10:07.382Z,95280.47
2022-08-22T19:13:07.681Z,95288.72
2022-08-22T19:15:51.061Z,95293.59
2022-08-22T19:18:37.943Z,95297.31
2022-08-22T19:21:20.065Z,95294.81
2022-08-22T19:23:52.403Z,95301.16
2022-08-22T19:26:27.323Z,95299.06
2022-08-22T19:28:58.825Z,95299.50
2022-08-22T19:31:44.204Z,95306.75
2022-08-22T19:34:39.163Z,95307.06
2022-08-22T19:37:31.948Z,95308.44
2022-08-22T19:40:05.603Z,95300.00
2022-08-22T19:42:39.062Z,95304.16
2022-08-22T19:45:22.423Z,95306.06
2022-08-22T19:47:58.304Z,95307.16
2022-08-22T19:50:31.842Z,95313.00
2022-08-22T19:53:35.723Z,95310.63
2022-08-22T19:56:35.342Z,95301.09
2022-08-22T19:59:17.963Z,95311.22
2022-08-22T20:01:59.247Z,95305.97
2022-08-22T20:04:58.182Z,95305.84
2022-08-22T20:07:38.503Z,95307.16
2022-08-22T20:10:22.922Z,95314.91
2022-08-22T20:13:02.804Z,95313.13
2022-08-22T20:15:32.203Z,95303.78
2022-08-22T20:21:00.094Z,95305.09
2022-08-22T20:23:30.986Z,95309.66
2022-08-22T20:26:00.004Z,95304.59
2022-08-22T20:28:45.848Z,95306.66
2022-08-22T20:31:22.227Z,95311.22
2022-08-22T20:33:58.003Z,95309.84
2022-08-22T20:36:28.684Z,95311.22
2022-08-22T20:39:01.730Z,95314.22
2022-08-22T20:41:40.145Z,95308.53
2022-08-22T20:44:13.881Z,95319.56
2022-08-22T20:46:55.273Z,95314.09
2022-08-22T20:49:28.474Z,95318.69
2022-08-22T20:51:59.326Z,95320.75
2022-08-22T20:54:29.223Z,95311.41
2022-08-22T20:56:58.802Z,95320.56
2022-08-22T20:59:33.003Z,95324.84
2022-08-22T21:02:10.523Z,95316.97
2022-08-22T21:04:59.758Z,95317.19
2022-08-22T21:07:29.702Z,95321.34
2022-08-22T21:10:02.122Z,95316.78
2022-08-22T21:12:29.263Z,95317.59
2022-08-22T21:14:56.341Z,95323.72
2022-08-22T21:17:29.209Z,95319.78
2022-08-22T21:20:19.883Z,95314.69
2022-08-22T21:22:47.621Z,95318.97
2022-08-22T21:25:15.222Z,95322.25
2022-08-22T21:27:48.804Z,95323.94
2022-08-22T21:30:23.864Z,95324.56
2022-08-22T21:32:55.983Z,95329.91
2022-08-22T21:35:33.023Z,95324.56
2022-08-22T21:38:02.161Z,95321.88
2022-08-22T21:40:34.641Z,95326.13
2022-08-22T21:43:06.120Z,95320.56
2022-08-22T21:45:43.703Z,95325.75
2022-08-22T21:48:41.043Z,95323.06
2022-08-22T21:51:29.709Z,95324.97
2022-08-22T21:54:22.463Z,95318.78
2022-08-22T21:56:52.642Z,95313.41
2022-08-22T21:59:25.018Z,95322.09
2022-08-22T22:01:53.182Z,95324.78
2022-08-22T22:04:22.641Z,95321.47
2022-08-22T22:06:51.284Z,95323.06
2022-08-22T22:09:18.402Z,95324.97
2022-08-22T22:11:45.621Z,95324.97
2022-08-22T22:14:12.742Z,95334.41
2022-08-22T22:16:39.912Z,95331.72
2022-08-22T22:19:08.817Z,95333.63
2022-08-22T22:21:37.801Z,95320.78
2022-08-22T22:24:06.740Z,95329.97
2022-08-22T22:26:33.935Z,95335.13
2022-08-22T22:29:03.621Z,95338.09
2022-08-22T22:31:30.742Z,95342.47
2022-08-22T22:33:59.720Z,95346.59
2022-08-22T22:36:27.892Z,95344.50
2022-08-22T22:38:55.621Z,95357.53
2022-08-22T22:41:24.478Z,95352.16
2022-08-22T22:43:52.161Z,95357.53
2022-08-22T22:46:19.961Z,95358.53
2022-08-22T22:48:47.400Z,95354.72
2022-08-22T22:51:15.117Z,95357.00
2022-08-22T22:53:43.740Z,95362.56
2022-08-22T22:56:13.894Z,95363.06
2022-08-22T22:58:42.942Z,95367.63
2022-08-22T23:01:11.922Z,95367.63
2022-08-22T23:03:39.401Z,95371.81
2022-08-22T23:06:11.825Z,95375.91
2022-08-22T23:08:39.309Z,95373.63
2022-08-22T23:11:10.268Z,95375.31
2022-08-22T23:13:39.752Z,95371.72
2022-08-22T23:16:13.683Z,95369.91
2022-08-22T23:18:41.451Z,95373.13
2022-08-22T23:21:13.110Z,95377.19
2022-08-22T23:23:40.549Z,95374.78
2022-08-22T23:26:08.131Z,95373.69
2022-08-22T23:28:35.449Z,95374.00
2022-08-22T23:31:16.829Z,95371.50
2022-08-22T23:33:44.349Z,95372.31
2022-08-22T23:36:16.610Z,95373.19
2022-08-22T23:38:45.069Z,95371.91
2022-08-22T23:41:14.891Z,95383.44
2022-08-22T23:43:44.051Z,95377.44
2022-08-22T23:46:11.467Z,95379.75
2022-08-22T23:48:40.270Z,95379.94
2022-08-22T23:51:09.784Z,95380.53
2022-08-22T23:53:37.791Z,95370.91
2022-08-22T23:56:19.667Z,95365.03
2022-08-22T23:58:49.039Z,95369.31
